Time;durP1;ratioP1;P1;durP2;ratioP2;P2;SDS_P1;SDS_P2;PMS_P1;PMS_P2;Temp;Humidity;BMP_temperature;BMP_pressure;BME280_temperature;BME280_humidity;BME280_pressure;Samples;Min_cycle;Max_cycle;Signal;HPM_P1;HPM_P2
2021/03/31 00:02:09;;;;;;;3.72;1.50;;;11.60;62.10;;;;;;5114098;28;20053;-74
2021/03/31 00:04:35;;;;;;;3.83;1.60;;;11.70;62.00;;;;;;5114390;28;20088;-73
2021/03/31 00:07:03;;;;;;;2.83;1.50;;;11.70;61.90;;;;;;5113729;28;20039;-73
2021/03/31 00:09:29;;;;;;;2.83;1.33;;;11.70;61.80;;;;;;5114380;28;20036;-73
2021/03/31 00:11:55;;;;;;;2.53;1.20;;;11.70;61.80;;;;;;5114111;28;20036;-73
2021/03/31 00:14:21;;;;;;;2.95;1.52;;;11.70;61.80;;;;;;5114443;28;20393;-73
2021/03/31 00:16:46;;;;;;;2.72;1.27;;;11.70;61.80;;;;;;5113832;28;20122;-73
2021/03/31 00:19:12;;;;;;;3.50;1.50;;;11.60;61.70;;;;;;5095599;28;20106;-73
2021/03/31 00:21:38;;;;;;;4.07;1.67;;;11.50;61.80;;;;;;5113726;28;20048;-74
2021/03/31 00:24:04;;;;;;;2.70;1.33;;;11.50;61.80;;;;;;5113881;28;20063;-73
2021/03/31 00:26:29;;;;;;;2.05;1.05;;;11.50;61.80;;;;;;5114088;28;20035;-73
2021/03/31 00:28:55;;;;;;;3.70;1.52;;;11.50;61.90;;;;;;5078322;28;20054;-73
2021/03/31 00:31:21;;;;;;;3.35;1.42;;;11.40;61.90;;;;;;5113295;28;20089;-73
2021/03/31 00:33:47;;;;;;;2.42;1.20;;;11.30;61.90;;;;;;5114132;28;20122;-72
2021/03/31 00:36:12;;;;;;;3.30;1.45;;;11.30;62.10;;;;;;5113940;28;20034;-72
2021/03/31 00:38:38;;;;;;;3.63;1.50;;;11.30;62.10;;;;;;5113376;28;20493;-73
2021/03/31 00:41:05;;;;;;;2.70;1.10;;;11.20;62.10;;;;;;5113390;28;20040;-74
2021/03/31 00:43:31;;;;;;;2.30;1.17;;;11.30;62.20;;;;;;5113918;28;20478;-74
2021/03/31 00:45:57;;;;;;;2.85;1.10;;;11.20;62.20;;;;;;5094767;28;20039;-74
2021/03/31 00:48:23;;;;;;;4.00;1.73;;;11.30;62.30;;;;;;5113521;28;20104;-72
2021/03/31 00:50:53;;;;;;;2.58;1.38;;;11.10;62.30;;;;;;5113315;28;20035;-72
2021/03/31 00:53:23;;;;;;;2.60;1.30;;;11.10;62.50;;;;;;5113208;28;20070;-73
2021/03/31 00:55:49;;;;;;;2.83;1.45;;;11.00;63.20;;;;;;5112907;28;20039;-72
2021/03/31 00:58:15;;;;;;;2.63;1.48;;;11.00;62.60;;;;;;5113083;28;20550;-73
2021/03/31 01:00:41;;;;;;;2.78;1.30;;;10.90;62.70;;;;;;5113390;28;20070;-74
2021/03/31 01:03:07;;;;;;;4.22;1.92;;;10.90;62.80;;;;;;5095029;28;20048;-74
2021/03/31 01:05:33;;;;;;;3.13;1.38;;;10.80;62.80;;;;;;5112986;28;20071;-74
2021/03/31 01:07:59;;;;;;;3.45;1.60;;;10.80;62.80;;;;;;5112998;28;20044;-74
2021/03/31 01:10:33;;;;;;;2.95;1.52;;;10.80;62.80;;;;;;5113261;28;20534;-74
2021/03/31 01:13:22;;;;;;;1.83;1.08;;;10.70;62.90;;;;;;5094489;28;20077;-74
2021/03/31 01:16:02;;;;;;;2.67;1.20;;;10.60;63.00;;;;;;5094443;28;20036;-74
2021/03/31 01:18:36;;;;;;;3.45;1.60;;;10.50;63.20;;;;;;5112595;28;20048;-74
2021/03/31 01:21:41;;;;;;;2.08;1.10;;;10.40;63.40;;;;;;5112627;28;20050;-74
2021/03/31 01:24:41;;;;;;;1.70;0.90;;;10.30;63.60;;;;;;5112696;28;20047;-74
2021/03/31 01:27:13;;;;;;;2.60;1.10;;;10.20;63.70;;;;;;5110842;28;20048;-74
2021/03/31 01:30:12;;;;;;;2.05;0.90;;;10.20;63.90;;;;;;5113218;28;20118;-74
2021/03/31 01:33:01;;;;;;;2.15;1.13;;;10.10;63.90;;;;;;5112598;28;20043;-74
2021/03/31 01:35:27;;;;;;;2.25;0.90;;;10.00;63.90;;;;;;5111716;28;20039;-74
2021/03/31 01:37:59;;;;;;;2.05;0.90;;;10.00;64.00;;;;;;5112619;28;20039;-74
2021/03/31 01:40:26;;;;;;;1.65;0.98;;;10.00;64.00;;;;;;5112628;28;20434;-74
2021/03/31 01:42:57;;;;;;;2.55;1.35;;;10.00;64.10;;;;;;5110685;28;20443;-74
2021/03/31 01:45:28;;;;;;;2.20;1.20;;;9.90;64.70;;;;;;5112498;28;20474;-74
2021/03/31 01:47:56;;;;;;;2.75;1.20;;;9.90;64.10;;;;;;5094057;28;20409;-74
2021/03/31 01:50:24;;;;;;;3.53;1.55;;;9.90;64.10;;;;;;5094532;28;20031;-74
2021/03/31 01:52:50;;;;;;;2.67;1.20;;;9.90;64.10;;;;;;5112702;28;20031;-74
2021/03/31 01:55:16;;;;;;;2.40;1.23;;;9.80;64.00;;;;;;5112826;28;20050;-73
2021/03/31 01:57:44;;;;;;;2.95;0.90;;;9.80;64.10;;;;;;5112471;28;20047;-73
2021/03/31 02:00:13;;;;;;;1.83;1.13;;;9.80;64.10;;;;;;5093941;28;20044;-74
2021/03/31 02:02:42;;;;;;;2.67;1.20;;;9.70;64.10;;;;;;5112770;28;20044;-74
2021/03/31 02:05:10;;;;;;;2.47;1.10;;;9.70;64.10;;;;;;5112083;28;20055;-74
2021/03/31 02:07:39;;;;;;;3.83;1.40;;;9.70;64.20;;;;;;5093695;28;20036;-74
2021/03/31 02:10:08;;;;;;;2.40;1.10;;;9.60;64.20;;;;;;5097495;28;20046;-74
2021/03/31 02:12:35;;;;;;;1.75;0.98;;;9.50;64.30;;;;;;5115771;28;20035;-74
2021/03/31 02:15:02;;;;;;;2.22;1.10;;;9.50;64.30;;;;;;5097530;28;20035;-74
2021/03/31 02:17:30;;;;;;;2.33;1.02;;;9.40;64.30;;;;;;5115633;28;20047;-74
2021/03/31 02:19:57;;;;;;;2.33;1.13;;;9.40;64.40;;;;;;5115718;28;20047;-74
2021/03/31 02:22:25;;;;;;;2.70;1.15;;;9.40;64.40;;;;;;5116042;28;20554;-74
2021/03/31 02:24:53;;;;;;;2.80;1.23;;;9.40;64.50;;;;;;5115519;28;20501;-74
2021/03/31 02:27:19;;;;;;;1.92;1.23;;;9.40;64.40;;;;;;5115278;28;20132;-74
2021/03/31 02:29:46;;;;;;;3.65;1.88;;;9.30;64.40;;;;;;5097372;28;20456;-74
2021/03/31 02:32:14;;;;;;;2.47;1.20;;;9.40;64.50;;;;;;5115943;28;20538;-74
2021/03/31 02:34:41;;;;;;;2.47;1.30;;;9.40;64.50;;;;;;5115943;28;20042;-74
2021/03/31 02:37:07;;;;;;;2.05;1.00;;;9.30;64.50;;;;;;5115190;28;20378;-75
2021/03/31 02:39:37;;;;;;;2.15;1.10;;;9.30;64.50;;;;;;5115235;28;20047;-74
2021/03/31 02:42:04;;;;;;;2.28;1.10;;;9.30;64.50;;;;;;5115019;28;20397;-74
2021/03/31 02:44:31;;;;;;;2.28;1.20;;;9.30;64.60;;;;;;5115322;28;20043;-74
2021/03/31 02:47:02;;;;;;;2.65;1.23;;;9.20;64.60;;;;;;5115545;28;20044;-74
2021/03/31 02:49:30;;;;;;;3.17;1.13;;;9.20;64.60;;;;;;5115271;28;20031;-74
2021/03/31 02:51:58;;;;;;;2.35;1.15;;;9.20;64.60;;;;;;5115044;28;20047;-74
2021/03/31 02:54:25;;;;;;;2.22;1.00;;;9.20;64.60;;;;;;5097443;28;20101;-74
2021/03/31 02:56:52;;;;;;;2.70;1.20;;;9.10;64.60;;;;;;5097113;28;20146;-74
2021/03/31 02:59:17;;;;;;;2.05;1.15;;;9.10;64.70;;;;;;5114916;28;20116;-74
2021/03/31 03:01:44;;;;;;;2.13;1.00;;;9.00;64.70;;;;;;5112854;28;20126;-74
2021/03/31 03:04:10;;;;;;;2.00;0.90;;;9.00;64.80;;;;;;5096951;28;20451;-74
2021/03/31 03:06:36;;;;;;;2.10;1.02;;;8.90;64.90;;;;;;5114961;28;20063;-74
2021/03/31 03:09:05;;;;;;;1.77;0.98;;;8.90;65.00;;;;;;5115082;28;20031;-74
2021/03/31 03:11:32;;;;;;;2.28;1.20;;;8.90;65.00;;;;;;5114811;28;20043;-74
2021/03/31 03:14:00;;;;;;;2.53;1.20;;;8.80;65.00;;;;;;5114900;28;20188;-74
2021/03/31 03:16:27;;;;;;;2.53;1.17;;;8.80;65.10;;;;;;5115205;28;20031;-74
2021/03/31 03:18:53;;;;;;;2.70;1.30;;;8.80;65.00;;;;;;5114556;28;20039;-74
2021/03/31 03:21:21;;;;;;;2.85;1.30;;;8.80;65.10;;;;;;5114558;28;20127;-74
2021/03/31 03:23:48;;;;;;;2.35;1.15;;;8.70;65.10;;;;;;5114458;28;20043;-73
2021/03/31 03:26:16;;;;;;;2.92;1.40;;;8.60;65.20;;;;;;5096287;28;20134;-74
2021/03/31 03:28:44;;;;;;;1.77;1.15;;;8.70;65.30;;;;;;5114930;28;20135;-74
2021/03/31 03:31:11;;;;;;;2.03;1.02;;;8.60;65.30;;;;;;5114908;28;20059;-74
2021/03/31 03:33:38;;;;;;;2.55;1.17;;;8.50;65.40;;;;;;5114365;28;20042;-74
2021/03/31 03:36:05;;;;;;;1.80;1.00;;;8.50;65.40;;;;;;5114272;28;20168;-74
2021/03/31 03:38:34;;;;;;;2.08;1.10;;;8.50;65.50;;;;;;5114349;28;20051;-74
2021/03/31 03:41:04;;;;;;;2.67;1.23;;;8.50;65.70;;;;;;5114235;28;20040;-74
2021/03/31 03:43:30;;;;;;;4.05;2.00;;;8.40;65.70;;;;;;5114150;28;20044;-74
2021/03/31 03:45:58;;;;;;;2.55;1.45;;;8.40;65.80;;;;;;5114201;28;20071;-74
2021/03/31 03:48:24;;;;;;;4.45;2.00;;;8.30;65.80;;;;;;5114241;28;20447;-74
2021/03/31 03:50:50;;;;;;;3.88;1.75;;;8.30;65.70;;;;;;5114151;28;20058;-74
2021/03/31 03:53:17;;;;;;;2.63;1.48;;;8.40;65.70;;;;;;5114594;28;20526;-74
2021/03/31 03:55:43;;;;;;;3.67;1.65;;;8.40;65.60;;;;;;5114052;28;20066;-73
2021/03/31 03:58:09;;;;;;;4.65;1.70;;;8.30;65.60;;;;;;5114497;28;20469;-74
2021/03/31 04:00:35;;;;;;;2.30;1.23;;;8.30;65.60;;;;;;5114085;28;20044;-74
2021/03/31 04:03:01;;;;;;;2.83;1.30;;;8.20;65.70;;;;;;5114001;28;20430;-74
2021/03/31 04:05:27;;;;;;;1.88;1.10;;;8.20;65.80;;;;;;5095912;28;20069;-74
2021/03/31 04:07:54;;;;;;;3.40;1.40;;;8.20;65.80;;;;;;5078832;28;20192;-73
2021/03/31 04:10:23;;;;;;;2.45;1.27;;;8.20;65.80;;;;;;5114446;28;20118;-74
2021/03/31 04:12:51;;;;;;;1.85;1.00;;;8.20;66.00;;;;;;5095696;28;20520;-74
2021/03/31 04:15:18;;;;;;;3.80;1.60;;;8.10;65.90;;;;;;5113920;28;20036;-74
2021/03/31 04:17:44;;;;;;;3.28;1.55;;;8.10;65.90;;;;;;5114419;28;20036;-74
2021/03/31 04:20:14;;;;;;;2.67;1.45;;;8.10;66.00;;;;;;5114367;28;20486;-74
2021/03/31 04:22:40;;;;;;;2.65;1.30;;;8.10;66.00;;;;;;5114186;28;20405;-74
2021/03/31 04:25:09;;;;;;;2.75;1.25;;;8.00;66.00;;;;;;5111972;28;20588;-73
2021/03/31 04:27:36;;;;;;;2.15;1.25;;;8.00;66.20;;;;;;5113732;28;20048;-74
2021/03/31 04:30:11;;;;;;;3.50;1.60;;;7.90;66.30;;;;;;5095599;28;20043;-73
2021/03/31 04:32:39;;;;;;;3.38;1.40;;;7.90;66.50;;;;;;5095248;28;20035;-74
2021/03/31 04:35:06;;;;;;;2.78;1.52;;;7.80;66.60;;;;;;5113654;28;20370;-74
2021/03/31 04:37:32;;;;;;;2.50;1.20;;;7.70;66.70;;;;;;5095179;28;20088;-74
2021/03/31 04:39:58;;;;;;;2.35;1.30;;;7.70;66.80;;;;;;5095125;28;20047;-74
2021/03/31 04:42:24;;;;;;;3.35;1.50;;;7.60;66.90;;;;;;5113266;28;20062;-74
2021/03/31 04:44:50;;;;;;;3.05;1.50;;;7.60;67.10;;;;;;5113380;28;20035;-74
2021/03/31 04:47:16;;;;;;;4.55;1.92;;;7.50;67.20;;;;;;5113099;28;20107;-74
2021/03/31 04:49:42;;;;;;;3.67;1.70;;;7.50;67.30;;;;;;5095366;28;20128;-74
2021/03/31 04:52:08;;;;;;;3.35;1.55;;;7.40;67.40;;;;;;5113409;28;20036;-74
2021/03/31 04:54:34;;;;;;;3.28;1.70;;;7.40;67.50;;;;;;5113816;28;20039;-74
2021/03/31 04:56:59;;;;;;;2.80;1.52;;;7.30;67.40;;;;;;5113115;28;20375;-74
2021/03/31 04:59:25;;;;;;;3.20;1.40;;;7.30;67.40;;;;;;5095050;28;20043;-74
2021/03/31 05:01:51;;;;;;;1.83;1.10;;;7.50;67.50;;;;;;5113027;28;20047;-73
2021/03/31 05:04:16;;;;;;;3.10;1.40;;;7.30;67.40;;;;;;5113265;28;20071;-73
2021/03/31 05:06:42;;;;;;;2.38;1.30;;;7.30;67.50;;;;;;5113343;28;20032;-73
2021/03/31 05:09:08;;;;;;;2.53;1.13;;;7.20;67.40;;;;;;5113055;28;20123;-73
2021/03/31 05:11:34;;;;;;;1.92;1.10;;;7.20;67.50;;;;;;5113567;28;20066;-73
2021/03/31 05:14:00;;;;;;;2.40;1.20;;;7.20;67.50;;;;;;5113166;28;20131;-73
2021/03/31 05:16:26;;;;;;;1.65;1.10;;;7.20;67.60;;;;;;5113465;28;20473;-74
2021/03/31 05:18:52;;;;;;;2.80;1.27;;;7.20;67.70;;;;;;5112675;28;20497;-74
2021/03/31 05:21:18;;;;;;;3.38;1.50;;;7.20;67.80;;;;;;5113012;28;20130;-74
2021/03/31 05:23:43;;;;;;;3.28;1.67;;;7.20;67.80;;;;;;5113158;28;20088;-73
2021/03/31 05:26:10;;;;;;;2.45;1.40;;;7.20;67.80;;;;;;5113318;28;20427;-73
2021/03/31 05:28:36;;;;;;;2.65;1.50;;;7.20;67.80;;;;;;5112616;28;20042;-73
2021/03/31 05:31:01;;;;;;;2.80;1.55;;;7.20;67.90;;;;;;5094961;28;20036;-73
2021/03/31 05:33:27;;;;;;;2.63;1.27;;;7.20;67.80;;;;;;5094675;28;20067;-73
2021/03/31 05:35:53;;;;;;;2.50;1.20;;;7.20;67.70;;;;;;5094329;28;20075;-73
2021/03/31 05:38:19;;;;;;;2.42;1.30;;;7.20;67.80;;;;;;5112667;28;20043;-74
2021/03/31 05:40:45;;;;;;;3.08;1.50;;;7.20;67.80;;;;;;5112670;28;20047;-74
2021/03/31 05:43:11;;;;;;;2.88;1.45;;;7.20;67.90;;;;;;5112235;28;20059;-73
2021/03/31 05:45:37;;;;;;;1.92;1.30;;;7.10;67.90;;;;;;5112603;28;20050;-73
2021/03/31 05:48:03;;;;;;;2.58;1.40;;;7.10;68.00;;;;;;5112170;28;20039;-73
2021/03/31 05:50:29;;;;;;;4.28;1.95;;;7.10;68.00;;;;;;5094329;28;20040;-73
2021/03/31 05:52:55;;;;;;;3.83;1.60;;;7.00;68.10;;;;;;5094109;28;20516;-74
2021/03/31 05:55:21;;;;;;;3.75;1.63;;;7.10;68.20;;;;;;5112063;28;20046;-74
2021/03/31 05:57:47;;;;;;;3.35;1.52;;;7.00;68.10;;;;;;5093981;28;20040;-73
2021/03/31 06:00:17;;;;;;;2.30;1.40;;;7.00;68.20;;;;;;5094497;28;20044;-73
2021/03/31 06:02:45;;;;;;;2.75;1.40;;;7.10;68.20;;;;;;5093879;28;20447;-73
2021/03/31 06:05:12;;;;;;;2.33;1.30;;;7.20;68.10;;;;;;5111828;28;20044;-74
2021/03/31 06:07:41;;;;;;;2.05;1.10;;;7.30;68.10;;;;;;5111764;28;20043;-73
2021/03/31 06:10:13;;;;;;;3.45;1.65;;;7.30;68.00;;;;;;5112077;28;20419;-73
2021/03/31 06:12:39;;;;;;;;;;;7.30;67.90;;;;;;5094107;28;20039;-73
2021/03/31 06:15:29;;;;;;;2.08;1.05;;;7.30;67.80;;;;;;5111876;28;19943;-74
2021/03/31 06:18:11;;;;;;;2.42;0.98;;;7.50;67.80;;;;;;5110476;28;20039;-74
2021/03/31 06:20:55;;;;;;;1.63;0.95;;;7.50;67.60;;;;;;5112001;28;20039;-74
2021/03/31 06:26:29;;;;;;;1.40;0.82;;;7.70;67.50;;;;;;5111417;28;20458;-74
2021/03/31 06:29:03;;;;;;;1.45;0.95;;;7.80;67.40;;;;;;5111571;28;20130;-74
2021/03/31 06:31:33;;;;;;;2.33;1.23;;;7.80;67.30;;;;;;5111917;28;20417;-74
2021/03/31 06:34:06;;;;;;;1.57;1.10;;;7.90;67.20;;;;;;5094319;28;20047;-74
2021/03/31 06:36:35;;;;;;;1.98;1.02;;;8.10;67.20;;;;;;5111802;28;20474;-74
2021/03/31 06:39:15;;;;;;;2.22;0.85;;;8.20;67.00;;;;;;5111713;28;20464;-74
2021/03/31 06:41:51;;;;;;;1.80;1.00;;;8.30;66.90;;;;;;5112177;28;20101;-73
2021/03/31 06:44:38;;;;;;;2.70;1.48;;;8.40;66.80;;;;;;5111572;28;20051;-74
2021/03/31 06:47:17;;;;;;;2.35;1.02;;;8.60;66.60;;;;;;5093139;28;20435;-73
2021/03/31 06:49:43;;;;;;;3.53;1.85;;;8.80;66.40;;;;;;5112050;28;20036;-77
2021/03/31 06:52:10;;;;;;;2.78;1.58;;;8.90;66.20;;;;;;5111777;28;20478;-74
2021/03/31 06:54:54;;;;;;;2.05;1.30;;;9.10;66.00;;;;;;5112291;28;20088;-74
2021/03/31 06:57:25;;;;;;;1.98;1.10;;;9.20;65.80;;;;;;5114883;28;20078;-76
2021/03/31 07:00:08;;;;;;;;;;;9.50;65.80;;;;;;5097356;28;20135;-73
2021/03/31 07:02:35;;;;;;;2.15;0.98;;;9.50;65.60;;;;;;5115304;28;20277;-74
2021/03/31 07:05:02;;;;;;;2.08;1.17;;;9.50;65.40;;;;;;5114889;28;20047;-75
2021/03/31 07:07:33;;;;;;;4.07;1.60;;;9.60;65.30;;;;;;5114843;28;20071;-74
2021/03/31 07:10:20;;;;;;;3.15;1.40;;;9.80;65.30;;;;;;5096482;28;20040;-75
2021/03/31 07:12:49;;;;;;;2.72;1.60;;;9.90;65.20;;;;;;5099120;28;20036;-75
2021/03/31 07:15:19;;;;;;;3.78;1.30;;;10.10;64.90;;;;;;5096678;28;20122;-75
2021/03/31 07:17:53;;;;;;;3.22;1.55;;;10.30;64.50;;;;;;5114873;28;20122;-74
2021/03/31 07:20:19;;;;;;;2.60;1.30;;;10.40;64.30;;;;;;5096282;28;20055;-73
2021/03/31 07:22:45;;;;;;;3.00;1.60;;;10.60;64.10;;;;;;5114481;28;20429;-74
2021/03/31 07:25:13;;;;;;;1.40;1.02;;;10.70;64.10;;;;;;5114904;28;20036;-73
2021/03/31 07:27:41;;;;;;;2.45;1.15;;;10.70;64.00;;;;;;5096939;28;20032;-73
2021/03/31 07:30:10;;;;;;;2.80;1.50;;;10.90;64.10;;;;;;5114282;28;20039;-73
2021/03/31 07:32:49;;;;;;;3.13;1.58;;;11.00;64.00;;;;;;5114123;28;20050;-73
2021/03/31 07:35:16;;;;;;;3.05;1.30;;;11.10;63.80;;;;;;5115043;28;20039;-74
2021/03/31 07:37:43;;;;;;;2.67;1.40;;;11.20;63.70;;;;;;5114550;28;20048;-73
2021/03/31 07:40:11;;;;;;;2.25;1.30;;;11.30;63.60;;;;;;5114460;28;20061;-73
2021/03/31 07:42:41;;;;;;;1.15;0.93;;;11.40;63.60;;;;;;5114637;28;20035;-74
2021/03/31 07:45:11;;;;;;;2.15;1.33;;;11.50;63.50;;;;;;5114526;28;20047;-74
2021/03/31 07:47:39;;;;;;;3.25;1.58;;;11.60;63.40;;;;;;5114199;28;20036;-74
2021/03/31 07:50:05;;;;;;;3.08;1.50;;;11.80;63.20;;;;;;5114542;28;20035;-75
2021/03/31 07:52:48;;;;;;;2.67;1.50;;;11.90;63.10;;;;;;5114174;28;20389;-76
2021/03/31 07:55:35;;;;;;;2.55;1.45;;;12.10;63.00;;;;;;5095879;28;20040;-76
2021/03/31 07:58:15;;;;;;;2.92;1.30;;;12.20;62.80;;;;;;5098096;28;20096;-75
2021/03/31 08:00:54;;;;;;;2.65;1.52;;;12.50;62.60;;;;;;5114336;28;20061;-76
2021/03/31 08:03:24;;;;;;;2.10;1.27;;;12.60;62.40;;;;;;5080841;28;20031;-75
2021/03/31 08:06:17;;;;;;;3.05;1.50;;;12.80;62.90;;;;;;5122725;28;20039;-77
2021/03/31 08:09:04;;;;;;;2.83;1.58;;;12.90;61.90;;;;;;5117821;28;20040;-76
2021/03/31 08:11:48;;;;;;;2.28;1.55;;;13.20;61.70;;;;;;5114098;28;20051;-75
2021/03/31 08:14:19;;;;;;;3.53;1.90;;;13.30;61.50;;;;;;5112513;28;20529;-76
2021/03/31 08:16:48;;;;;;;3.50;1.80;;;13.50;61.40;;;;;;5096146;28;20114;-78
2021/03/31 08:19:17;;;;;;;2.75;1.80;;;13.70;61.20;;;;;;5113897;28;20079;-78
2021/03/31 08:21:45;;;;;;;2.28;1.40;;;13.70;61.00;;;;;;5096472;28;20130;-79
2021/03/31 08:24:12;;;;;;;2.28;1.30;;;14.00;60.90;;;;;;5096235;28;20096;-78
2021/03/31 08:26:43;;;;;;;1.98;1.20;;;14.20;60.80;;;;;;5114318;28;20082;-79
2021/03/31 08:29:10;;;;;;;;;;;14.30;60.60;;;;;;5114170;28;20067;-79
2021/03/31 08:31:40;;;;;;;1.42;0.95;;;14.50;60.50;;;;;;5114305;28;19912;-80
2021/03/31 08:34:07;;;;;;;2.22;1.30;;;14.70;60.30;;;;;;5113985;28;20512;-78
2021/03/31 08:36:35;;;;;;;1.42;0.95;;;14.90;60.10;;;;;;5113882;28;20044;-77
2021/03/31 08:39:07;;;;;;;3.13;1.70;;;15.20;60.00;;;;;;5114046;28;20122;-75
2021/03/31 08:41:32;;;;;;;;;;;15.40;59.80;;;;;;5114208;28;20069;-76
2021/03/31 08:44:21;;;;;;;2.17;1.30;;;15.50;59.70;;;;;;5113472;28;19912;-77
2021/03/31 08:46:47;;;;;;;1.85;1.20;;;15.70;59.60;;;;;;5113740;28;20204;-78
2021/03/31 08:49:30;;;;;;;3.35;1.50;;;15.90;59.50;;;;;;5050717;28;20135;-79
2021/03/31 08:51:59;;;;;;;2.17;1.40;;;16.00;59.40;;;;;;5034228;28;20102;-78
2021/03/31 08:54:33;;;;;;;1.60;1.10;;;16.10;59.30;;;;;;5051245;28;20049;-78
2021/03/31 08:57:01;;;;;;;2.08;1.40;;;16.20;59.20;;;;;;5034214;28;20506;-78
2021/03/31 08:59:42;;;;;;;3.03;1.50;;;16.50;59.30;;;;;;5051508;28;20452;-78
2021/03/31 09:02:09;;;;;;;2.45;1.60;;;16.50;59.10;;;;;;5034260;28;20052;-78
2021/03/31 09:04:35;;;;;;;2.33;1.27;;;16.70;59.00;;;;;;5050686;28;20526;-75
2021/03/31 09:07:04;;;;;;;2.85;1.80;;;16.80;58.90;;;;;;5051130;28;20055;-78
2021/03/31 09:09:33;;;;;;;2.85;1.65;;;17.00;58.80;;;;;;5050420;28;20068;-75
2021/03/31 09:12:05;;;;;;;2.13;1.30;;;17.10;58.70;;;;;;5050106;28;20482;-79
2021/03/31 09:14:39;;;;;;;2.17;1.38;;;17.30;58.60;;;;;;5050535;28;20399;-80
2021/03/31 09:17:41;;;;;;;2.58;1.55;;;17.50;58.60;;;;;;5049460;28;20044;-78
2021/03/31 09:20:40;;;;;;;2.13;1.27;;;17.60;58.30;;;;;;4977375;28;20079;-79
2021/03/31 09:23:06;;;;;;;2.25;1.23;;;17.70;58.10;;;;;;4995643;28;20045;-74
2021/03/31 09:25:32;;;;;;;3.05;1.58;;;17.90;58.30;;;;;;4977686;28;20096;-75
2021/03/31 09:28:01;;;;;;;3.58;1.80;;;18.00;58.10;;;;;;4977649;28;20049;-75
2021/03/31 09:30:27;;;;;;;3.88;2.10;;;18.00;58.00;;;;;;4975362;28;20117;-75
2021/03/31 09:33:13;;;;;;;3.03;1.92;;;18.20;57.90;;;;;;4977123;28;20034;-79
2021/03/31 09:35:39;;;;;;;3.25;1.80;;;18.10;57.70;;;;;;4977791;28;20606;-76
2021/03/31 09:38:05;;;;;;;2.58;1.42;;;18.30;57.90;;;;;;4992302;28;20042;-74
2021/03/31 09:40:31;;;;;;;2.83;1.80;;;18.30;57.70;;;;;;4991180;28;20082;-75
2021/03/31 09:43:01;;;;;;;2.90;1.80;;;18.50;57.60;;;;;;4990756;28;20433;-77
2021/03/31 09:45:29;;;;;;;2.03;1.48;;;18.50;57.40;;;;;;4991686;28;20077;-76
2021/03/31 09:47:56;;;;;;;2.85;1.63;;;18.80;57.40;;;;;;5004491;28;20056;-75
2021/03/31 09:50:26;;;;;;;4.85;2.05;;;18.80;57.20;;;;;;5026003;28;20036;-77
2021/03/31 09:53:01;;;;;;;2.78;1.60;;;18.80;57.00;;;;;;5070112;28;20490;-75
2021/03/31 09:55:30;;;;;;;2.88;1.70;;;18.90;56.80;;;;;;5053384;28;20079;-76
2021/03/31 09:57:56;;;;;;;3.60;2.08;;;19.10;56.80;;;;;;5069546;28;20032;-75
2021/03/31 10:00:24;;;;;;;3.15;2.00;;;19.10;56.60;;;;;;5072192;28;20063;-75
2021/03/31 10:02:51;;;;;;;3.67;1.92;;;19.20;56.40;;;;;;5112431;28;20131;-74
2021/03/31 10:05:20;;;;;;;3.95;1.85;;;19.30;56.30;;;;;;5112501;28;20093;-74
2021/03/31 10:08:07;;;;;;;3.15;1.95;;;19.40;56.30;;;;;;5112155;28;20044;-74
2021/03/31 10:10:48;;;;;;;4.28;2.10;;;19.50;56.10;;;;;;5111934;28;20089;-74
2021/03/31 10:13:15;;;;;;;;;;;19.60;56.00;;;;;;5094368;28;20032;-74
2021/03/31 10:15:44;;;;;;;1.77;1.27;;;19.70;56.20;;;;;;5112256;28;19912;-74
2021/03/31 10:18:10;;;;;;;2.20;1.17;;;19.70;56.60;;;;;;5112539;28;20039;-74
2021/03/31 10:20:42;;;;;;;3.53;1.38;;;19.80;55.90;;;;;;5111923;28;20039;-74
2021/03/31 10:23:24;;;;;;;1.52;1.20;;;19.90;55.70;;;;;;5094773;28;20039;-74
2021/03/31 10:25:50;;;;;;;4.22;1.60;;;20.00;55.60;;;;;;5111399;28;20043;-74
2021/03/31 10:28:35;;;;;;;3.25;1.75;;;20.10;55.50;;;;;;5110979;28;20043;-74
2021/03/31 10:31:25;;;;;;;3.58;1.67;;;20.20;55.20;;;;;;5095694;28;20040;-74
2021/03/31 10:33:52;;;;;;;3.67;2.20;;;20.30;55.10;;;;;;5115197;28;20032;-74
2021/03/31 10:40:12;;;;;;;2.08;1.10;;;20.50;54.80;;;;;;5114524;28;20050;-74
2021/03/31 10:48:38;;;;;;;2.33;1.40;;;20.80;54.30;;;;;;5098439;28;20052;-75
2021/03/31 10:51:13;;;;;;;2.97;1.50;;;20.90;54.30;;;;;;5115324;28;20122;-74
2021/03/31 10:53:43;;;;;;;2.85;1.60;;;21.00;54.10;;;;;;5115785;28;20043;-74
2021/03/31 10:56:10;;;;;;;2.97;1.65;;;21.10;53.90;;;;;;5115123;28;20027;-75
2021/03/31 10:58:35;;;;;;;2.72;1.60;;;21.20;53.80;;;;;;5097209;28;20043;-75
2021/03/31 11:01:01;;;;;;;3.90;2.10;;;21.30;53.60;;;;;;5115483;28;20552;-74
2021/03/31 11:03:27;;;;;;;3.72;2.15;;;21.40;53.30;;;;;;5114906;28;20123;-74
2021/03/31 11:05:54;;;;;;;5.32;2.28;;;21.40;53.10;;;;;;5079889;28;20085;-74
2021/03/31 11:08:21;;;;;;;3.05;1.80;;;21.60;52.90;;;;;;5114997;28;20474;-75
2021/03/31 11:10:48;;;;;;;2.63;1.40;;;21.60;52.70;;;;;;5080337;28;20134;-75
2021/03/31 11:13:13;;;;;;;2.83;1.77;;;21.70;52.70;;;;;;5096927;28;20048;-73
2021/03/31 11:15:39;;;;;;;2.83;1.67;;;21.70;52.50;;;;;;5096993;28;20089;-72
2021/03/31 11:18:14;;;;;;;2.97;1.70;;;21.90;52.40;;;;;;5096457;28;20501;-75
2021/03/31 11:21:05;;;;;;;2.63;1.67;;;22.00;52.30;;;;;;5081624;28;20044;-75
2021/03/31 11:26:06;;;;;;;;;;;22.20;52.10;;;;;;5114687;28;20035;-74
2021/03/31 11:28:32;;;;;;;3.88;1.80;;;22.30;52.10;;;;;;5114506;28;20014;-77
2021/03/31 11:30:57;;;;;;;3.60;1.98;;;22.30;51.90;;;;;;5096226;28;20147;-76
2021/03/31 11:33:25;;;;;;;3.10;1.75;;;22.40;51.80;;;;;;5096470;28;20505;-77
2021/03/31 11:35:52;;;;;;;3.47;2.03;;;22.50;51.70;;;;;;5080140;28;20099;-74
2021/03/31 11:38:18;;;;;;;3.00;1.67;;;22.50;51.50;;;;;;5096902;28;20095;-75
2021/03/31 11:40:45;;;;;;;3.40;1.92;;;22.50;51.40;;;;;;5095573;28;20043;-73
2021/03/31 11:43:13;;;;;;;3.75;1.88;;;22.70;51.20;;;;;;5096597;28;20047;-73
2021/03/31 11:45:39;;;;;;;2.78;1.67;;;22.70;51.00;;;;;;5063348;28;20201;-75
2021/03/31 11:48:06;;;;;;;3.42;1.90;;;22.80;51.10;;;;;;5114500;28;20123;-74
2021/03/31 11:50:32;;;;;;;3.33;1.85;;;22.90;50.80;;;;;;5114138;28;20054;-75
2021/03/31 11:52:58;;;;;;;4.88;2.05;;;23.10;50.70;;;;;;5114455;28;20055;-74
2021/03/31 11:55:24;;;;;;;4.18;1.92;;;23.10;50.50;;;;;;5113849;28;20028;-75
2021/03/31 11:57:50;;;;;;;3.17;1.80;;;23.20;50.30;;;;;;5114320;28;20047;-73
2021/03/31 12:00:16;;;;;;;4.72;2.50;;;23.30;50.20;;;;;;5114061;28;20040;-74
2021/03/31 12:02:43;;;;;;;3.35;1.60;;;23.40;50.00;;;;;;5114064;28;20108;-72
2021/03/31 12:05:10;;;;;;;3.65;2.13;;;23.50;49.90;;;;;;5095555;28;20121;-73
2021/03/31 12:07:36;;;;;;;3.05;1.80;;;23.50;49.60;;;;;;5113817;28;20520;-76
2021/03/31 12:10:07;;;;;;;2.83;1.80;;;23.70;49.60;;;;;;5078957;28;20067;-76
2021/03/31 12:12:41;;;;;;;3.25;1.77;;;23.70;49.40;;;;;;5079960;28;20065;-76
2021/03/31 12:15:12;;;;;;;2.90;1.80;;;23.90;49.30;;;;;;5097134;28;20039;-75
2021/03/31 12:17:40;;;;;;;2.60;1.50;;;23.90;49.10;;;;;;5114170;28;20055;-75
2021/03/31 12:20:10;;;;;;;3.90;2.00;;;24.00;49.10;;;;;;5096151;28;20069;-75
2021/03/31 12:22:37;;;;;;;2.83;1.75;;;24.10;49.00;;;;;;5114486;28;20413;-75
2021/03/31 12:25:05;;;;;;;4.38;2.15;;;24.10;48.90;;;;;;5113690;28;20032;-73
2021/03/31 12:27:33;;;;;;;3.95;2.15;;;24.20;48.80;;;;;;5078817;28;20046;-72
2021/03/31 12:30:00;;;;;;;2.65;1.70;;;24.30;48.80;;;;;;5062504;28;20084;-72
2021/03/31 12:32:26;;;;;;;2.55;1.63;;;24.30;48.70;;;;;;5113844;28;20038;-75
2021/03/31 12:34:52;;;;;;;3.03;2.00;;;24.40;48.70;;;;;;5095341;28;20031;-75
2021/03/31 12:37:18;;;;;;;3.95;2.40;;;24.50;48.40;;;;;;5096239;28;20051;-74
2021/03/31 12:39:44;;;;;;;5.97;2.75;;;24.50;48.30;;;;;;5116100;28;20032;-76
2021/03/31 12:42:10;;;;;;;4.45;2.38;;;24.40;48.20;;;;;;5121938;28;20040;-75
2021/03/31 12:44:36;;;;;;;4.40;2.50;;;24.50;48.30;;;;;;5061552;28;20040;-77
2021/03/31 12:47:02;;;;;;;4.70;2.85;;;24.40;48.20;;;;;;5095037;28;20039;-77
2021/03/31 12:49:29;;;;;;;4.50;2.63;;;24.40;48.10;;;;;;5095257;28;20057;-77
2021/03/31 12:51:59;;;;;;;3.67;2.10;;;24.40;48.10;;;;;;5094928;28;20035;-76
2021/03/31 12:54:31;;;;;;;4.68;2.42;;;24.40;48.10;;;;;;5078385;28;20097;-77
2021/03/31 12:56:57;;;;;;;5.43;2.78;;;24.40;48.00;;;;;;5113764;28;20036;-75
2021/03/31 12:59:23;;;;;;;4.68;2.53;;;24.60;47.70;;;;;;5112810;28;20042;-75
2021/03/31 13:01:48;;;;;;;4.75;2.40;;;24.70;47.60;;;;;;5094663;28;20050;-75
2021/03/31 13:04:15;;;;;;;4.57;2.40;;;24.70;47.50;;;;;;5113368;28;20374;-75
2021/03/31 13:06:41;;;;;;;3.72;2.20;;;24.80;47.50;;;;;;5112712;28;20092;-74
2021/03/31 13:09:07;;;;;;;2.83;1.80;;;24.70;47.50;;;;;;5094657;28;20520;-78
2021/03/31 13:11:33;;;;;;;3.42;2.20;;;24.70;47.40;;;;;;5095518;28;20071;-78
2021/03/31 13:14:23;;;;;;;4.50;2.47;;;24.80;47.50;;;;;;5112640;28;20043;-77
2021/03/31 13:22:13;;;;;;;5.18;2.92;;;24.80;47.60;;;;;;5112356;28;20054;-78
2021/03/31 13:24:45;;;;;;;4.32;2.58;;;24.70;47.40;;;;;;5112222;28;20122;-79
2021/03/31 13:27:19;;;;;;;3.35;1.98;;;24.80;47.30;;;;;;5112642;28;20504;-78